sensor_id;sensor_type;location;lat;lon;timestamp;pressure;altitude;pressure_sealevel;temperature;humidity
69127;BME280;56688;50.234;19.292;2023-04-27T00:01:53;98657.87;;;2.81;73.88
69127;BME280;56688;50.234;19.292;2023-04-27T00:04:20;98657.27;;;2.82;73.70
69127;BME280;56688;50.234;19.292;2023-04-27T00:06:47;98656.63;;;2.83;73.57
69127;BME280;56688;50.234;19.292;2023-04-27T00:09:14;98656.05;;;2.86;73.61
69127;BME280;56688;50.234;19.292;2023-04-27T00:11:41;98655.30;;;2.90;73.68
69127;BME280;56688;50.234;19.292;2023-04-27T00:14:08;98657.21;;;2.94;73.78
69127;BME280;56688;50.234;19.292;2023-04-27T00:16:35;98656.27;;;2.99;73.46
69127;BME280;56688;50.234;19.292;2023-04-27T00:19:02;98651.11;;;3.01;73.37
69127;BME280;56688;50.234;19.292;2023-04-27T00:21:29;98649.45;;;3.02;73.48
69127;BME280;56688;50.234;19.292;2023-04-27T00:23:57;98645.64;;;3.02;73.40
69127;BME280;56688;50.234;19.292;2023-04-27T00:26:24;98646.20;;;2.99;73.55
69127;BME280;56688;50.234;19.292;2023-04-27T00:28:52;98647.60;;;2.95;73.28
69127;BME280;56688;50.234;19.292;2023-04-27T00:31:19;98646.77;;;2.89;73.13
69127;BME280;56688;50.234;19.292;2023-04-27T00:33:48;98647.69;;;2.83;73.57
69127;BME280;56688;50.234;19.292;2023-04-27T00:36:15;98650.48;;;2.79;73.51
69127;BME280;56688;50.234;19.292;2023-04-27T00:38:42;98649.85;;;2.76;73.61
69127;BME280;56688;50.234;19.292;2023-04-27T00:41:09;98649.69;;;2.74;73.56
69127;BME280;56688;50.234;19.292;2023-04-27T00:43:44;98651.77;;;2.72;73.54
69127;BME280;56688;50.234;19.292;2023-04-27T00:46:12;98654.71;;;2.69;73.66
69127;BME280;56688;50.234;19.292;2023-04-27T00:48:40;98654.41;;;2.66;73.95
69127;BME280;56688;50.234;19.292;2023-04-27T00:51:07;98652.16;;;2.62;73.88
69127;BME280;56688;50.234;19.292;2023-04-27T00:53:35;98653.11;;;2.57;74.00
69127;BME280;56688;50.234;19.292;2023-04-27T00:56:03;98654.81;;;2.49;73.87
69127;BME280;56688;50.234;19.292;2023-04-27T00:58:30;98655.11;;;2.44;73.88
69127;BME280;56688;50.234;19.292;2023-04-27T01:00:58;98654.72;;;2.39;74.14
69127;BME280;56688;50.234;19.292;2023-04-27T01:03:25;98659.96;;;2.33;73.90
69127;BME280;56688;50.234;19.292;2023-04-27T01:05:53;98656.34;;;2.28;73.79
69127;BME280;56688;50.234;19.292;2023-04-27T01:08:19;98656.94;;;2.25;74.27
69127;BME280;56688;50.234;19.292;2023-04-27T01:10:46;98661.73;;;2.20;74.01
69127;BME280;56688;50.234;19.292;2023-04-27T01:13:15;98664.55;;;2.14;73.33
69127;BME280;56688;50.234;19.292;2023-04-27T01:15:42;98669.71;;;2.08;73.23
69127;BME280;56688;50.234;19.292;2023-04-27T01:18:09;98670.46;;;1.97;73.21
69127;BME280;56688;50.234;19.292;2023-04-27T01:20:35;98669.76;;;1.86;73.16
69127;BME280;56688;50.234;19.292;2023-04-27T01:23:04;98666.67;;;1.75;73.24
69127;BME280;56688;50.234;19.292;2023-04-27T01:25:31;98671.60;;;1.64;73.36
69127;BME280;56688;50.234;19.292;2023-04-27T01:28:00;98672.46;;;1.56;73.76
69127;BME280;56688;50.234;19.292;2023-04-27T01:30:28;98674.47;;;1.51;74.10
69127;BME280;56688;50.234;19.292;2023-04-27T01:32:57;98677.98;;;1.46;73.67
69127;BME280;56688;50.234;19.292;2023-04-27T01:35:24;98678.52;;;1.40;73.28
69127;BME280;56688;50.234;19.292;2023-04-27T01:37:57;98678.15;;;1.32;73.53
69127;BME280;56688;50.234;19.292;2023-04-27T01:40:24;98676.13;;;1.23;73.47
69127;BME280;56688;50.234;19.292;2023-04-27T01:42:52;98680.40;;;1.15;73.18
69127;BME280;56688;50.234;19.292;2023-04-27T01:45:18;98682.83;;;1.07;73.54
69127;BME280;56688;50.234;19.292;2023-04-27T01:47:45;98682.11;;;0.98;73.59
69127;BME280;56688;50.234;19.292;2023-04-27T01:50:12;98685.27;;;0.90;73.65
69127;BME280;56688;50.234;19.292;2023-04-27T01:52:39;98683.59;;;0.82;74.32
69127;BME280;56688;50.234;19.292;2023-04-27T01:55:07;98680.83;;;0.77;74.52
69127;BME280;56688;50.234;19.292;2023-04-27T01:57:34;98684.61;;;0.75;74.86
69127;BME280;56688;50.234;19.292;2023-04-27T02:00:01;98684.23;;;0.76;75.41
69127;BME280;56688;50.234;19.292;2023-04-27T02:02:46;98683.44;;;0.77;75.20
69127;BME280;56688;50.234;19.292;2023-04-27T02:05:13;98686.61;;;0.77;75.21
69127;BME280;56688;50.234;19.292;2023-04-27T02:07:40;98685.56;;;0.73;75.00
69127;BME280;56688;50.234;19.292;2023-04-27T02:10:07;98686.13;;;0.68;75.11
69127;BME280;56688;50.234;19.292;2023-04-27T02:12:34;98690.05;;;0.63;75.11
69127;BME280;56688;50.234;19.292;2023-04-27T02:15:02;98686.33;;;0.59;75.56
69127;BME280;56688;50.234;19.292;2023-04-27T02:17:29;98687.83;;;0.53;75.70
69127;BME280;56688;50.234;19.292;2023-04-27T02:19:56;98689.11;;;0.48;75.81
69127;BME280;56688;50.234;19.292;2023-04-27T02:22:23;98689.25;;;0.42;75.72
69127;BME280;56688;50.234;19.292;2023-04-27T02:24:50;98693.59;;;0.35;76.40
69127;BME280;56688;50.234;19.292;2023-04-27T02:27:17;98691.73;;;0.32;76.57
69127;BME280;56688;50.234;19.292;2023-04-27T02:29:44;98691.29;;;0.28;76.96
69127;BME280;56688;50.234;19.292;2023-04-27T02:32:11;98689.77;;;0.28;77.15
69127;BME280;56688;50.234;19.292;2023-04-27T02:34:38;98690.34;;;0.27;77.46
69127;BME280;56688;50.234;19.292;2023-04-27T02:37:05;98689.45;;;0.27;77.51
69127;BME280;56688;50.234;19.292;2023-04-27T02:39:32;98688.29;;;0.27;77.22
69127;BME280;56688;50.234;19.292;2023-04-27T02:41:59;98688.10;;;0.23;77.02
69127;BME280;56688;50.234;19.292;2023-04-27T02:44:27;98690.69;;;0.20;77.28
69127;BME280;56688;50.234;19.292;2023-04-27T02:46:54;98690.08;;;0.20;77.24
69127;BME280;56688;50.234;19.292;2023-04-27T02:49:21;98690.60;;;0.20;77.38
69127;BME280;56688;50.234;19.292;2023-04-27T02:51:48;98688.05;;;0.19;76.92
69127;BME280;56688;50.234;19.292;2023-04-27T02:54:15;98684.61;;;0.18;76.97
69127;BME280;56688;50.234;19.292;2023-04-27T02:56:42;98689.89;;;0.13;76.92
69127;BME280;56688;50.234;19.292;2023-04-27T02:59:09;98685.34;;;0.08;77.28
69127;BME280;56688;50.234;19.292;2023-04-27T03:01:36;98687.08;;;0.04;77.36
69127;BME280;56688;50.234;19.292;2023-04-27T03:04:04;98685.97;;;-0.05;77.29
69127;BME280;56688;50.234;19.292;2023-04-27T03:06:31;98691.20;;;-0.11;77.59
69127;BME280;56688;50.234;19.292;2023-04-27T03:08:58;98689.47;;;-0.18;77.52
69127;BME280;56688;50.234;19.292;2023-04-27T03:11:26;98696.31;;;-0.25;77.63
69127;BME280;56688;50.234;19.292;2023-04-27T03:13:53;98700.90;;;-0.31;77.86
69127;BME280;56688;50.234;19.292;2023-04-27T03:16:20;98701.60;;;-0.35;78.36
69127;BME280;56688;50.234;19.292;2023-04-27T03:18:47;98704.11;;;-0.36;78.46
69127;BME280;56688;50.234;19.292;2023-04-27T03:21:13;98707.20;;;-0.31;78.71
69127;BME280;56688;50.234;19.292;2023-04-27T03:23:42;98706.71;;;-0.26;78.76
69127;BME280;56688;50.234;19.292;2023-04-27T03:26:10;98708.27;;;-0.24;78.84
69127;BME280;56688;50.234;19.292;2023-04-27T03:28:40;98703.39;;;-0.21;78.79
69127;BME280;56688;50.234;19.292;2023-04-27T03:31:09;98708.92;;;-0.20;78.90
69127;BME280;56688;50.234;19.292;2023-04-27T03:33:37;98712.69;;;-0.20;79.00
69127;BME280;56688;50.234;19.292;2023-04-27T03:36:05;98714.05;;;-0.19;78.93
69127;BME280;56688;50.234;19.292;2023-04-27T03:38:33;98714.38;;;-0.21;79.00
69127;BME280;56688;50.234;19.292;2023-04-27T03:41:00;98719.67;;;-0.21;79.01
69127;BME280;56688;50.234;19.292;2023-04-27T03:43:27;98723.92;;;-0.22;79.05
69127;BME280;56688;50.234;19.292;2023-04-27T03:45:54;98727.30;;;-0.23;79.27
69127;BME280;56688;50.234;19.292;2023-04-27T03:48:21;98732.89;;;-0.20;79.51
69127;BME280;56688;50.234;19.292;2023-04-27T03:50:49;98737.52;;;-0.19;79.62
69127;BME280;56688;50.234;19.292;2023-04-27T03:53:16;98742.16;;;-0.20;79.57
69127;BME280;56688;50.234;19.292;2023-04-27T03:55:43;98740.25;;;-0.23;79.58
69127;BME280;56688;50.234;19.292;2023-04-27T03:58:11;98742.00;;;-0.23;79.65
69127;BME280;56688;50.234;19.292;2023-04-27T04:00:48;98747.52;;;-0.24;79.71
69127;BME280;56688;50.234;19.292;2023-04-27T04:03:15;98752.11;;;-0.22;79.91
69127;BME280;56688;50.234;19.292;2023-04-27T04:05:42;98748.52;;;-0.19;79.96
69127;BME280;56688;50.234;19.292;2023-04-27T04:08:12;98748.93;;;-0.13;79.81
69127;BME280;56688;50.234;19.292;2023-04-27T04:10:39;98748.39;;;-0.06;79.71
69127;BME280;56688;50.234;19.292;2023-04-27T04:13:07;98751.53;;;0.06;79.77
69127;BME280;56688;50.234;19.292;2023-04-27T04:15:35;98748.10;;;0.17;79.22
69127;BME280;56688;50.234;19.292;2023-04-27T04:18:02;98748.98;;;0.23;78.88
69127;BME280;56688;50.234;19.292;2023-04-27T04:20:29;98750.38;;;0.31;78.67
69127;BME280;56688;50.234;19.292;2023-04-27T04:22:56;98754.50;;;0.36;78.53
69127;BME280;56688;50.234;19.292;2023-04-27T04:25:23;98752.72;;;0.41;78.77
69127;BME280;56688;50.234;19.292;2023-04-27T04:27:51;98755.54;;;0.47;78.96
69127;BME280;56688;50.234;19.292;2023-04-27T04:30:18;98755.69;;;0.55;78.98
69127;BME280;56688;50.234;19.292;2023-04-27T04:32:45;98762.71;;;0.66;79.28
69127;BME280;56688;50.234;19.292;2023-04-27T04:35:12;98756.30;;;0.80;79.02
69127;BME280;56688;50.234;19.292;2023-04-27T04:37:40;98754.52;;;0.96;79.20
69127;BME280;56688;50.234;19.292;2023-04-27T04:40:07;98761.95;;;1.16;79.09
69127;BME280;56688;50.234;19.292;2023-04-27T04:42:35;98764.16;;;1.36;78.64
69127;BME280;56688;50.234;19.292;2023-04-27T04:45:04;98767.70;;;1.57;79.10
69127;BME280;56688;50.234;19.292;2023-04-27T04:47:31;98769.14;;;1.78;78.48
69127;BME280;56688;50.234;19.292;2023-04-27T04:49:59;98769.82;;;1.97;78.31
69127;BME280;56688;50.234;19.292;2023-04-27T04:52:28;98769.78;;;2.15;78.10
69127;BME280;56688;50.234;19.292;2023-04-27T04:54:55;98770.14;;;2.31;77.73
69127;BME280;56688;50.234;19.292;2023-04-27T04:57:22;98770.02;;;2.49;77.38
69127;BME280;56688;50.234;19.292;2023-04-27T04:59:49;98773.61;;;2.67;77.10
69127;BME280;56688;50.234;19.292;2023-04-27T05:02:16;98766.84;;;2.86;76.67
69127;BME280;56688;50.234;19.292;2023-04-27T05:04:43;98769.14;;;3.06;76.19
69127;BME280;56688;50.234;19.292;2023-04-27T05:07:10;98771.70;;;3.25;75.76
69127;BME280;56688;50.234;19.292;2023-04-27T05:09:41;98774.30;;;3.39;75.20
69127;BME280;56688;50.234;19.292;2023-04-27T05:12:08;98778.00;;;3.55;74.84
69127;BME280;56688;50.234;19.292;2023-04-27T05:14:35;98776.31;;;3.76;74.65
69127;BME280;56688;50.234;19.292;2023-04-27T05:17:02;98776.98;;;3.97;74.27
69127;BME280;56688;50.234;19.292;2023-04-27T05:19:29;98776.27;;;4.18;74.21
69127;BME280;56688;50.234;19.292;2023-04-27T05:21:57;98774.54;;;4.41;74.17
69127;BME280;56688;50.234;19.292;2023-04-27T05:24:25;98773.86;;;4.67;74.21
69127;BME280;56688;50.234;19.292;2023-04-27T05:26:52;98774.21;;;4.99;74.09
69127;BME280;56688;50.234;19.292;2023-04-27T05:29:21;98773.19;;;5.35;73.52
69127;BME280;56688;50.234;19.292;2023-04-27T05:31:48;98774.16;;;5.74;72.51
69127;BME280;56688;50.234;19.292;2023-04-27T05:34:15;98780.80;;;6.14;71.08
69127;BME280;56688;50.234;19.292;2023-04-27T05:36:42;98782.54;;;6.51;67.23
69127;BME280;56688;50.234;19.292;2023-04-27T05:39:09;98784.70;;;6.77;64.61
69127;BME280;56688;50.234;19.292;2023-04-27T05:41:36;98782.86;;;7.01;63.79
69127;BME280;56688;50.234;19.292;2023-04-27T05:44:03;98784.86;;;7.21;62.93
69127;BME280;56688;50.234;19.292;2023-04-27T05:46:30;98790.20;;;7.50;62.42
69127;BME280;56688;50.234;19.292;2023-04-27T05:48:57;98788.38;;;7.78;60.91
69127;BME280;56688;50.234;19.292;2023-04-27T05:51:24;98794.83;;;8.06;59.40
69127;BME280;56688;50.234;19.292;2023-04-27T05:53:52;98796.83;;;8.35;59.27
69127;BME280;56688;50.234;19.292;2023-04-27T05:56:21;98795.79;;;8.61;57.63
69127;BME280;56688;50.234;19.292;2023-04-27T05:58:48;98796.64;;;8.76;56.12
69127;BME280;56688;50.234;19.292;2023-04-27T06:01:15;98796.34;;;9.04;55.63
69127;BME280;56688;50.234;19.292;2023-04-27T06:03:42;98795.44;;;9.39;55.29
69127;BME280;56688;50.234;19.292;2023-04-27T06:06:09;98797.06;;;9.79;54.93
69127;BME280;56688;50.234;19.292;2023-04-27T06:08:36;98797.33;;;10.21;52.50
69127;BME280;56688;50.234;19.292;2023-04-27T06:11:05;98798.59;;;10.48;50.33
69127;BME280;56688;50.234;19.292;2023-04-27T06:13:32;98795.60;;;10.80;49.92
69127;BME280;56688;50.234;19.292;2023-04-27T06:16:00;98795.92;;;11.02;48.83
69127;BME280;56688;50.234;19.292;2023-04-27T06:18:27;98795.59;;;11.23;48.66
69127;BME280;56688;50.234;19.292;2023-04-27T06:21:01;98796.02;;;11.65;48.14
69127;BME280;56688;50.234;19.292;2023-04-27T06:23:28;98796.80;;;12.16;47.53
69127;BME280;56688;50.234;19.292;2023-04-27T06:25:55;98799.41;;;12.47;45.45
69127;BME280;56688;50.234;19.292;2023-04-27T06:28:22;98798.08;;;12.89;44.92
69127;BME280;56688;50.234;19.292;2023-04-27T06:30:49;98798.73;;;13.47;44.00
69127;BME280;56688;50.234;19.292;2023-04-27T06:33:16;98799.70;;;13.97;43.33
69127;BME280;56688;50.234;19.292;2023-04-27T06:35:43;98802.60;;;14.19;41.95
69127;BME280;56688;50.234;19.292;2023-04-27T06:38:13;98803.19;;;14.43;40.86
69127;BME280;56688;50.234;19.292;2023-04-27T06:40:40;98808.50;;;14.72;40.76
69127;BME280;56688;50.234;19.292;2023-04-27T06:43:07;98803.02;;;15.07;39.73
69127;BME280;56688;50.234;19.292;2023-04-27T06:45:34;98802.70;;;15.02;39.75
69127;BME280;56688;50.234;19.292;2023-04-27T06:48:01;98802.00;;;14.97;39.79
69127;BME280;56688;50.234;19.292;2023-04-27T06:50:29;98806.48;;;14.76;39.23
69127;BME280;56688;50.234;19.292;2023-04-27T06:52:56;98806.77;;;14.31;40.29
69127;BME280;56688;50.234;19.292;2023-04-27T06:55:23;98800.31;;;14.31;39.88
69127;BME280;56688;50.234;19.292;2023-04-27T06:57:50;98803.27;;;14.44;40.40
69127;BME280;56688;50.234;19.292;2023-04-27T07:00:17;98801.23;;;14.66;40.27
69127;BME280;56688;50.234;19.292;2023-04-27T07:02:44;98804.73;;;14.82;39.63
69127;BME280;56688;50.234;19.292;2023-04-27T07:05:11;98803.95;;;14.96;39.22
69127;BME280;56688;50.234;19.292;2023-04-27T07:07:38;98804.34;;;15.13;39.19
69127;BME280;56688;50.234;19.292;2023-04-27T07:10:06;98802.05;;;15.45;39.07
69127;BME280;56688;50.234;19.292;2023-04-27T07:12:33;98796.84;;;15.82;38.76
69127;BME280;56688;50.234;19.292;2023-04-27T07:15:00;98798.15;;;16.28;37.09
69127;BME280;56688;50.234;19.292;2023-04-27T07:17:29;98793.44;;;16.72;36.73
69127;BME280;56688;50.234;19.292;2023-04-27T07:19:56;98787.18;;;17.31;35.67
69127;BME280;56688;50.234;19.292;2023-04-27T07:22:23;98787.61;;;17.84;35.06
69127;BME280;56688;50.234;19.292;2023-04-27T07:24:50;98790.45;;;18.17;33.78
69127;BME280;56688;50.234;19.292;2023-04-27T07:27:16;98789.76;;;18.01;33.00
69127;BME280;56688;50.234;19.292;2023-04-27T07:29:44;98790.31;;;17.84;32.62
69127;BME280;56688;50.234;19.292;2023-04-27T07:32:11;98794.65;;;17.61;32.52
69127;BME280;56688;50.234;19.292;2023-04-27T07:34:38;98794.03;;;17.20;32.64
69127;BME280;56688;50.234;19.292;2023-04-27T07:37:19;98795.49;;;16.80;32.98
69127;BME280;56688;50.234;19.292;2023-04-27T07:39:47;98793.27;;;16.31;33.11
69127;BME280;56688;50.234;19.292;2023-04-27T07:42:16;98794.23;;;15.91;34.39
69127;BME280;56688;50.234;19.292;2023-04-27T07:44:44;98794.83;;;15.51;34.01
69127;BME280;56688;50.234;19.292;2023-04-27T07:47:10;98799.73;;;15.28;34.61
69127;BME280;56688;50.234;19.292;2023-04-27T07:49:39;98800.44;;;15.11;33.59
69127;BME280;56688;50.234;19.292;2023-04-27T07:52:06;98797.13;;;15.11;33.66
69127;BME280;56688;50.234;19.292;2023-04-27T07:54:33;98794.02;;;14.88;34.56
69127;BME280;56688;50.234;19.292;2023-04-27T07:57:04;98794.66;;;14.63;35.32
69127;BME280;56688;50.234;19.292;2023-04-27T07:59:33;98792.15;;;14.18;35.12
69127;BME280;56688;50.234;19.292;2023-04-27T08:01:59;98793.93;;;13.75;35.67
69127;BME280;56688;50.234;19.292;2023-04-27T08:04:45;98797.69;;;13.44;36.35
69127;BME280;56688;50.234;19.292;2023-04-27T08:07:15;98797.92;;;13.24;37.27
69127;BME280;56688;50.234;19.292;2023-04-27T08:09:43;98798.23;;;13.18;36.49
69127;BME280;56688;50.234;19.292;2023-04-27T08:12:10;98797.42;;;13.25;36.13
69127;BME280;56688;50.234;19.292;2023-04-27T08:14:37;98796.90;;;13.42;35.97
69127;BME280;56688;50.234;19.292;2023-04-27T08:17:04;98799.84;;;13.44;34.96
69127;BME280;56688;50.234;19.292;2023-04-27T08:19:31;98802.55;;;13.21;35.26
69127;BME280;56688;50.234;19.292;2023-04-27T08:21:59;98801.50;;;12.83;36.23
69127;BME280;56688;50.234;19.292;2023-04-27T08:24:26;98805.23;;;12.63;36.28
69127;BME280;56688;50.234;19.292;2023-04-27T08:26:53;98807.67;;;12.50;37.05
69127;BME280;56688;50.234;19.292;2023-04-27T08:29:20;98804.74;;;12.44;36.77
69127;BME280;56688;50.234;19.292;2023-04-27T08:31:54;98805.13;;;12.34;36.38
69127;BME280;56688;50.234;19.292;2023-04-27T08:34:22;98801.81;;;12.10;36.22
69127;BME280;56688;50.234;19.292;2023-04-27T08:36:49;98803.92;;;11.96;37.43
69127;BME280;56688;50.234;19.292;2023-04-27T08:39:16;98797.02;;;11.80;37.07
69127;BME280;56688;50.234;19.292;2023-04-27T08:41:44;98805.48;;;11.75;37.37
69127;BME280;56688;50.234;19.292;2023-04-27T08:44:12;98799.74;;;11.67;37.85
69127;BME280;56688;50.234;19.292;2023-04-27T08:46:40;98802.39;;;11.68;39.36
69127;BME280;56688;50.234;19.292;2023-04-27T08:49:07;98806.94;;;11.79;38.64
69127;BME280;56688;50.234;19.292;2023-04-27T08:51:35;98813.16;;;12.04;38.05
69127;BME280;56688;50.234;19.292;2023-04-27T08:54:02;98815.11;;;12.21;38.17
69127;BME280;56688;50.234;19.292;2023-04-27T08:56:30;98814.56;;;12.24;37.41
69127;BME280;56688;50.234;19.292;2023-04-27T08:58:57;98814.09;;;12.14;37.44
69127;BME280;56688;50.234;19.292;2023-04-27T09:01:24;98822.45;;;12.13;37.65
69127;BME280;56688;50.234;19.292;2023-04-27T09:03:55;98819.96;;;12.15;36.82
69127;BME280;56688;50.234;19.292;2023-04-27T09:06:32;98819.92;;;12.17;36.26
69127;BME280;56688;50.234;19.292;2023-04-27T09:09:00;98816.83;;;12.27;36.22
69127;BME280;56688;50.234;19.292;2023-04-27T09:11:30;98812.14;;;12.48;36.44
69127;BME280;56688;50.234;19.292;2023-04-27T09:13:58;98815.45;;;12.74;34.69
69127;BME280;56688;50.234;19.292;2023-04-27T09:16:26;98810.17;;;13.02;35.00
69127;BME280;56688;50.234;19.292;2023-04-27T09:18:56;98809.67;;;13.37;34.07
69127;BME280;56688;50.234;19.292;2023-04-27T09:21:28;98800.55;;;13.75;34.43
69127;BME280;56688;50.234;19.292;2023-04-27T09:23:56;98800.14;;;14.24;34.85
69127;BME280;56688;50.234;19.292;2023-04-27T09:26:25;98802.66;;;14.92;33.11
69127;BME280;56688;50.234;19.292;2023-04-27T09:28:54;98792.65;;;15.70;30.96
69127;BME280;56688;50.234;19.292;2023-04-27T09:31:31;98789.27;;;16.18;30.28
69127;BME280;56688;50.234;19.292;2023-04-27T09:33:58;98791.62;;;16.10;29.99
69127;BME280;56688;50.234;19.292;2023-04-27T09:36:25;98793.50;;;16.02;29.54
69127;BME280;56688;50.234;19.292;2023-04-27T09:38:52;98797.06;;;15.86;29.66
69127;BME280;56688;50.234;19.292;2023-04-27T09:41:19;98798.32;;;15.50;30.66
69127;BME280;56688;50.234;19.292;2023-04-27T09:43:47;98799.52;;;15.18;31.38
69127;BME280;56688;50.234;19.292;2023-04-27T09:46:14;98809.13;;;14.74;31.30
69127;BME280;56688;50.234;19.292;2023-04-27T09:48:41;98804.87;;;14.16;31.88
69127;BME280;56688;50.234;19.292;2023-04-27T09:51:08;98802.55;;;13.71;32.46
69127;BME280;56688;50.234;19.292;2023-04-27T09:53:48;98806.14;;;13.34;33.14
69127;BME280;56688;50.234;19.292;2023-04-27T10:01:44;98801.35;;;13.25;35.26
69127;BME280;56688;50.234;19.292;2023-04-27T10:04:33;98798.61;;;13.38;34.50
69127;BME280;56688;50.234;19.292;2023-04-27T10:07:06;98796.83;;;13.45;32.86
69127;BME280;56688;50.234;19.292;2023-04-27T10:09:36;98795.55;;;13.57;32.83
69127;BME280;56688;50.234;19.292;2023-04-27T10:14:48;98787.82;;;14.24;32.86
69127;BME280;56688;50.234;19.292;2023-04-27T10:17:16;98786.45;;;14.53;31.31
69127;BME280;56688;50.234;19.292;2023-04-27T10:20:00;98785.84;;;14.60;31.30
69127;BME280;56688;50.234;19.292;2023-04-27T10:22:43;98787.79;;;14.54;30.88
69127;BME280;56688;50.234;19.292;2023-04-27T10:25:19;98784.30;;;14.47;31.33
69127;BME280;56688;50.234;19.292;2023-04-27T10:27:53;98796.80;;;14.42;31.15
69127;BME280;56688;50.234;19.292;2023-04-27T10:30:23;98796.16;;;14.25;31.22
69127;BME280;56688;50.234;19.292;2023-04-27T10:32:54;98795.09;;;14.19;31.58
69127;BME280;56688;50.234;19.292;2023-04-27T10:35:31;98795.03;;;14.13;32.18
69127;BME280;56688;50.234;19.292;2023-04-27T10:38:08;98797.30;;;13.96;33.01
69127;BME280;56688;50.234;19.292;2023-04-27T10:40:37;98791.52;;;13.68;33.30
69127;BME280;56688;50.234;19.292;2023-04-27T10:43:13;98799.42;;;13.52;34.47
69127;BME280;56688;50.234;19.292;2023-04-27T10:45:41;98803.27;;;13.50;33.98
69127;BME280;56688;50.234;19.292;2023-04-27T10:48:11;98809.48;;;13.39;34.13
69127;BME280;56688;50.234;19.292;2023-04-27T10:50:40;98812.52;;;13.47;35.91
69127;BME280;56688;50.234;19.292;2023-04-27T10:53:07;98812.80;;;13.71;35.17
69127;BME280;56688;50.234;19.292;2023-04-27T10:55:34;98810.59;;;13.90;34.09
69127;BME280;56688;50.234;19.292;2023-04-27T10:58:02;98807.38;;;14.09;35.53
69127;BME280;56688;50.234;19.292;2023-04-27T11:00:32;98806.45;;;14.24;33.64
69127;BME280;56688;50.234;19.292;2023-04-27T11:03:15;98808.36;;;14.24;32.74
69127;BME280;56688;50.234;19.292;2023-04-27T11:05:44;98810.86;;;14.35;33.43
69127;BME280;56688;50.234;19.292;2023-04-27T11:08:15;98812.77;;;14.61;32.48
69127;BME280;56688;50.234;19.292;2023-04-27T11:10:43;98807.13;;;14.95;31.82
69127;BME280;56688;50.234;19.292;2023-04-27T11:13:13;98806.16;;;15.27;30.53
69127;BME280;56688;50.234;19.292;2023-04-27T11:15:56;98802.98;;;15.39;30.90
69127;BME280;56688;50.234;19.292;2023-04-27T11:18:26;98798.65;;;15.48;30.75
69127;BME280;56688;50.234;19.292;2023-04-27T11:21:11;98804.86;;;15.47;32.05
69127;BME280;56688;50.234;19.292;2023-04-27T11:23:39;98794.10;;;15.55;30.08
69127;BME280;56688;50.234;19.292;2023-04-27T11:26:18;98789.02;;;15.69;30.57
69127;BME280;56688;50.234;19.292;2023-04-27T11:29:02;98787.41;;;15.85;31.34
69127;BME280;56688;50.234;19.292;2023-04-27T11:31:47;98791.73;;;15.65;32.04
69127;BME280;56688;50.234;19.292;2023-04-27T11:34:20;98795.17;;;15.62;32.62
69127;BME280;56688;50.234;19.292;2023-04-27T11:36:57;98793.92;;;15.72;33.29
69127;BME280;56688;50.234;19.292;2023-04-27T11:39:43;98793.96;;;16.26;32.30
69127;BME280;56688;50.234;19.292;2023-04-27T11:42:20;98790.16;;;16.71;31.63
69127;BME280;56688;50.234;19.292;2023-04-27T11:44:55;98789.15;;;17.06;31.86
69127;BME280;56688;50.234;19.292;2023-04-27T11:47:24;98791.95;;;17.03;30.85
69127;BME280;56688;50.234;19.292;2023-04-27T11:49:54;98794.90;;;16.82;31.02
69127;BME280;56688;50.234;19.292;2023-04-27T11:52:27;98793.66;;;16.48;30.19
69127;BME280;56688;50.234;19.292;2023-04-27T11:54:55;98802.98;;;15.96;29.67
69127;BME280;56688;50.234;19.292;2023-04-27T11:57:25;98806.86;;;15.28;30.66
69127;BME280;56688;50.234;19.292;2023-04-27T11:59:54;98797.45;;;14.58;31.52
69127;BME280;56688;50.234;19.292;2023-04-27T12:02:22;98807.78;;;14.05;32.44
69127;BME280;56688;50.234;19.292;2023-04-27T12:04:50;98806.55;;;13.57;33.87
69127;BME280;56688;50.234;19.292;2023-04-27T12:07:18;98807.80;;;13.33;34.76
69127;BME280;56688;50.234;19.292;2023-04-27T12:09:45;98813.35;;;13.30;35.05
69127;BME280;56688;50.234;19.292;2023-04-27T12:12:12;98810.95;;;13.38;34.87
69127;BME280;56688;50.234;19.292;2023-04-27T12:14:40;98805.08;;;13.53;34.07
69127;BME280;56688;50.234;19.292;2023-04-27T12:17:07;98803.55;;;13.63;33.72
69127;BME280;56688;50.234;19.292;2023-04-27T12:19:34;98808.67;;;13.61;33.65
69127;BME280;56688;50.234;19.292;2023-04-27T12:22:02;98808.77;;;13.56;33.75
69127;BME280;56688;50.234;19.292;2023-04-27T12:24:30;98814.85;;;13.48;34.43
69127;BME280;56688;50.234;19.292;2023-04-27T12:26:57;98814.02;;;13.31;34.65
69127;BME280;56688;50.234;19.292;2023-04-27T12:29:26;98817.13;;;13.17;35.43
69127;BME280;56688;50.234;19.292;2023-04-27T12:31:53;98812.50;;;13.05;35.33
69127;BME280;56688;50.234;19.292;2023-04-27T12:34:20;98815.08;;;12.99;35.98
69127;BME280;56688;50.234;19.292;2023-04-27T12:36:47;98810.00;;;12.95;35.21
69127;BME280;56688;50.234;19.292;2023-04-27T12:39:17;98807.17;;;12.98;35.08
69127;BME280;56688;50.234;19.292;2023-04-27T12:41:45;98798.66;;;13.28;36.05
69127;BME280;56688;50.234;19.292;2023-04-27T12:44:13;98800.86;;;14.01;36.14
69127;BME280;56688;50.234;19.292;2023-04-27T12:46:41;98799.14;;;14.41;32.80
69127;BME280;56688;50.234;19.292;2023-04-27T12:49:10;98800.65;;;14.53;32.16
69127;BME280;56688;50.234;19.292;2023-04-27T12:51:38;98799.70;;;14.60;33.03
69127;BME280;56688;50.234;19.292;2023-04-27T12:54:07;98804.12;;;14.68;32.84
69127;BME280;56688;50.234;19.292;2023-04-27T12:56:34;98803.17;;;14.78;32.93
69127;BME280;56688;50.234;19.292;2023-04-27T12:59:01;98799.89;;;14.86;33.00
69127;BME280;56688;50.234;19.292;2023-04-27T13:01:28;98797.48;;;14.92;32.94
69127;BME280;56688;50.234;19.292;2023-04-27T13:03:59;98801.67;;;14.97;32.24
69127;BME280;56688;50.234;19.292;2023-04-27T13:06:28;98800.45;;;15.07;32.20
69127;BME280;56688;50.234;19.292;2023-04-27T13:08:57;98800.40;;;15.12;31.55